Time;durP1;ratioP1;P1;durP2;ratioP2;P2;SDS_P1;SDS_P2;PMS_P1;PMS_P2;Temp;Humidity;BMP_temperature;BMP_pressure;BME280_temperature;BME280_humidity;BME280_pressure;Samples;Min_cycle;Max_cycle;Signal;HPM_P1;HPM_P2
2021/08/23 00:00:59;;;;;;;20.80;15.30;;;;;;;18.94;55.95;100924.05;117387;1185;21850;-68
2021/08/23 00:03:28;;;;;;;20.70;15.10;;;;;;;18.93;55.82;100922.68;117367;1183;23602;-66
2021/08/23 00:05:56;;;;;;;20.80;14.80;;;;;;;18.91;55.93;100923.65;117375;1186;21865;-67
2021/08/23 00:08:25;;;;;;;21.10;14.50;;;;;;;18.89;55.94;100922.62;117412;1183;21858;-66
2021/08/23 00:10:59;;;;;;;21.50;15.40;;;;;;;18.87;55.90;100926.08;117370;1185;22329;-67
2021/08/23 00:13:27;;;;;;;22.90;15.90;;;;;;;18.86;55.99;100922.76;117461;1185;21862;-66
2021/08/23 00:15:56;;;;;;;21.10;14.70;;;;;;;18.84;55.94;100922.11;117451;1186;21864;-61
2021/08/23 00:18:25;;;;;;;21.90;15.30;;;;;;;18.82;55.99;100923.27;117434;1183;21855;-66
2021/08/23 00:21:01;;;;;;;23.30;16.40;;;;;;;18.81;56.14;100921.86;117394;1184;21857;-67
2021/08/23 00:23:55;;;;;;;21.10;15.10;;;;;;;18.81;56.14;100918.33;117383;1183;22913;-66
2021/08/23 00:26:26;;;;;;;22.90;14.90;;;;;;;18.81;56.09;100920.63;117391;1180;21873;-66
2021/08/23 00:29:00;;;;;;;19.70;14.30;;;;;;;18.80;56.06;100918.89;117416;1182;21895;-65
2021/08/23 00:31:29;;;;;;;20.20;15.00;;;;;;;18.76;56.20;100919.06;117475;1185;22908;-66
2021/08/23 00:33:57;;;;;;;22.20;14.90;;;;;;;18.75;56.36;100924.25;117218;1186;24145;-67
2021/08/23 00:36:25;;;;;;;20.00;14.90;;;;;;;18.70;56.43;100929.94;117433;1183;21862;-66
2021/08/23 00:38:54;;;;;;;22.60;15.50;;;;;;;18.67;56.55;100926.50;117436;1186;21860;-61
2021/08/23 00:41:23;;;;;;;20.80;14.70;;;;;;;18.64;56.50;100926.24;117437;1185;21855;-62
2021/08/23 00:43:51;;;;;;;20.40;14.80;;;;;;;18.63;56.60;100931.44;117415;1185;21858;-67
2021/08/23 00:46:19;;;;;;;20.90;14.50;;;;;;;18.63;56.66;100928.78;117385;1182;21855;-62
2021/08/23 00:48:47;;;;;;;19.50;14.00;;;;;;;18.64;56.72;100931.04;117319;1185;23468;-62
2021/08/23 00:51:16;;;;;;;20.70;14.60;;;;;;;18.65;56.68;100932.96;117363;1185;21859;-62
2021/08/23 00:53:45;;;;;;;19.70;13.90;;;;;;;18.64;56.66;100935.33;117436;1185;21854;-66
2021/08/23 00:56:16;;;;;;;21.80;14.10;;;;;;;18.64;56.63;100933.36;117437;1185;21863;-68
2021/08/23 00:58:46;;;;;;;18.90;13.80;;;;;;;18.67;56.58;100934.15;117427;1179;21880;-66
2021/08/23 01:01:18;;;;;;;18.30;13.90;;;;;;;18.69;56.55;100935.31;117416;1183;23475;-67
2021/08/23 01:04:19;;;;;;;23.30;14.60;;;;;;;18.66;56.60;100934.02;117438;1186;21855;-66
2021/08/23 01:06:47;;;;;;;20.80;13.40;;;;;;;18.62;56.57;100932.90;116911;1187;21855;-66
2021/08/23 01:09:15;;;;;;;18.50;13.80;;;;;;;18.60;56.60;100934.04;117331;1186;21851;-63
2021/08/23 01:11:51;;;;;;;19.80;13.60;;;;;;;18.60;56.58;100931.20;117260;1186;21855;-67
2021/08/23 01:14:19;;;;;;;20.10;13.70;;;;;;;18.57;56.64;100928.80;117424;1185;21854;-67
2021/08/23 01:16:48;;;;;;;22.50;13.80;;;;;;;18.53;56.54;100934.64;117387;1182;22909;-66
2021/08/23 01:19:16;;;;;;;20.10;14.80;;;;;;;18.50;56.55;100937.61;117424;1186;21931;-61
2021/08/23 01:21:46;;;;;;;19.70;14.10;;;;;;;18.46;56.65;100934.92;117261;1187;21879;-62
2021/08/23 01:24:14;;;;;;;19.90;14.70;;;;;;;18.46;56.53;100928.16;117386;1185;21864;-63
2021/08/23 01:26:44;;;;;;;21.40;14.60;;;;;;;18.43;56.59;100930.04;117460;1186;21854;-62
2021/08/23 01:29:40;;;;;;;25.70;14.60;;;;;;;18.40;56.67;100934.05;117474;1186;23042;-66
2021/08/23 01:32:15;;;;;;;20.60;14.40;;;;;;;18.39;56.64;100932.13;117445;1183;23630;-66
2021/08/23 01:34:43;;;;;;;17.30;13.10;;;;;;;18.36;56.66;100930.80;117415;1182;21857;-67
2021/08/23 01:37:13;;;;;;;17.50;13.50;;;;;;;18.30;56.67;100932.27;117430;1182;21860;-62
2021/08/23 01:39:41;;;;;;;19.90;13.90;;;;;;;18.26;56.79;100932.08;117385;1183;21855;-66
2021/08/23 01:42:10;;;;;;;22.10;15.40;;;;;;;18.19;56.99;100932.46;117507;1185;21854;-66
2021/08/23 01:44:39;;;;;;;18.40;13.10;;;;;;;18.13;57.01;100930.39;117390;1185;21891;-61
2021/08/23 01:47:07;;;;;;;21.60;13.30;;;;;;;18.11;57.05;100932.75;117438;1185;22911;-62
2021/08/23 01:49:37;;;;;;;21.60;14.00;;;;;;;18.10;57.03;100934.40;117426;1186;21854;-65
2021/08/23 01:52:08;;;;;;;19.30;14.20;;;;;;;18.07;57.19;100936.45;117415;1185;21855;-62
2021/08/23 01:54:38;;;;;;;18.50;13.80;;;;;;;18.03;57.28;100932.15;117386;1185;21886;-62
2021/08/23 01:57:06;;;;;;;19.90;14.60;;;;;;;18.01;57.34;100933.09;117408;1182;21895;-66
2021/08/23 01:59:34;;;;;;;19.50;13.70;;;;;;;18.02;57.22;100933.98;117357;1182;21861;-61
2021/08/23 02:02:03;;;;;;;17.80;13.80;;;;;;;17.99;57.45;100931.56;117360;1185;22908;-65
2021/08/23 02:04:31;;;;;;;20.80;14.50;;;;;;;17.96;57.49;100928.97;117236;1186;21910;-61
2021/08/23 02:06:59;;;;;;;20.50;14.60;;;;;;;17.93;57.58;100931.73;117424;1182;21854;-61
2021/08/23 02:09:32;;;;;;;18.10;14.00;;;;;;;17.91;57.55;100932.51;117416;1182;21855;-62
2021/08/23 02:12:00;;;;;;;20.50;14.60;;;;;;;17.89;57.64;100933.99;117420;1186;21854;-65
2021/08/23 02:14:28;;;;;;;39.50;15.30;;;;;;;17.77;57.84;100937.59;117476;1184;21855;-66
2021/08/23 02:16:57;;;;;;;39.20;14.00;;;;;;;17.71;58.06;100939.20;117366;1182;22258;-65
2021/08/23 02:19:25;;;;;;;31.20;14.20;;;;;;;17.68;58.13;100936.64;117425;1185;21837;-66
2021/08/23 02:21:54;;;;;;;25.60;14.20;;;;;;;17.71;58.03;100939.06;117326;1176;21856;-66
2021/08/23 02:24:23;;;;;;;25.20;14.20;;;;;;;17.67;58.19;100942.53;117483;1186;22905;-67
2021/08/23 02:26:51;;;;;;;21.40;13.90;;;;;;;17.66;58.17;100939.76;117480;1180;21854;-66
2021/08/23 02:29:20;;;;;;;18.40;12.70;;;;;;;17.66;58.30;100942.41;117399;1182;21899;-62
2021/08/23 02:31:48;;;;;;;18.60;12.50;;;;;;;17.64;58.24;100942.84;117409;1185;21898;-66
2021/08/23 02:34:16;;;;;;;16.80;12.60;;;;;;;17.63;58.31;100940.02;117376;1186;23432;-64
2021/08/23 02:36:45;;;;;;;18.40;13.20;;;;;;;17.64;58.37;100942.14;117419;1186;21864;-67
2021/08/23 02:39:13;;;;;;;17.10;13.00;;;;;;;17.65;58.35;100942.61;117359;1183;23432;-68
2021/08/23 02:41:41;;;;;;;19.00;12.80;;;;;;;17.66;58.46;100942.77;117420;1179;21863;-69
2021/08/23 02:44:10;;;;;;;17.10;12.40;;;;;;;17.66;58.46;100945.42;117400;1182;21855;-70
2021/08/23 02:46:38;;;;;;;16.70;11.90;;;;;;;17.65;58.52;100946.89;117434;1183;23672;-64
2021/08/23 02:49:06;;;;;;;15.60;11.50;;;;;;;17.64;58.55;100950.27;117447;1185;21864;-69
2021/08/23 02:51:34;;;;;;;16.30;12.20;;;;;;;17.65;58.55;100952.76;117458;1183;21884;-63
2021/08/23 02:54:03;;;;;;;19.40;12.30;;;;;;;17.64;58.62;100954.90;117395;1186;21979;-63
2021/08/23 02:56:31;;;;;;;16.50;11.30;;;;;;;17.63;58.60;100956.52;117421;1185;22113;-68
2021/08/23 02:58:59;;;;;;;16.20;11.70;;;;;;;17.62;58.63;100959.77;117403;1188;22325;-68
2021/08/23 03:01:27;;;;;;;14.30;11.30;;;;;;;17.62;58.64;100960.12;117404;1182;21854;-68
2021/08/23 03:03:56;;;;;;;15.90;11.60;;;;;;;17.61;58.54;100959.80;117431;1186;22905;-63
2021/08/23 03:06:24;;;;;;;16.50;11.70;;;;;;;17.61;58.62;100958.03;117487;1185;21855;-62
2021/08/23 03:08:52;;;;;;;18.60;12.10;;;;;;;17.61;58.50;100958.70;117454;1184;21870;-63
2021/08/23 03:11:20;;;;;;;14.90;11.40;;;;;;;17.60;58.54;100957.88;117428;1185;21869;-67
2021/08/23 03:13:50;;;;;;;16.70;11.50;;;;;;;17.59;58.60;100954.71;117394;1183;21849;-68
2021/08/23 03:16:18;;;;;;;18.10;12.10;;;;;;;17.59;58.70;100955.06;117379;1186;21855;-63
2021/08/23 03:18:46;;;;;;;17.10;11.50;;;;;;;17.57;58.65;100956.53;117391;1186;21861;-63
2021/08/23 03:21:15;;;;;;;15.90;11.80;;;;;;;17.54;58.61;100958.96;117498;1185;21855;-63
2021/08/23 03:23:43;;;;;;;21.20;11.60;;;;;;;17.53;58.61;100962.32;117387;1186;22901;-67
2021/08/23 03:26:11;;;;;;;18.60;12.00;;;;;;;17.53;58.79;100966.41;117237;1184;21858;-68
2021/08/23 03:28:40;;;;;;;16.00;11.40;;;;;;;17.51;58.79;100969.31;117387;1182;23537;-69
2021/08/23 03:31:08;;;;;;;16.10;12.40;;;;;;;17.51;58.86;100970.04;117406;1185;22929;-67
2021/08/23 03:33:36;;;;;;;14.60;11.10;;;;;;;17.51;58.86;100968.27;117413;1185;22906;-63
2021/08/23 03:36:05;;;;;;;18.50;11.70;;;;;;;17.52;58.78;100967.34;117467;1186;21852;-68
2021/08/23 03:38:33;;;;;;;15.20;11.30;;;;;;;17.51;58.90;100969.66;117388;1185;23700;-69
2021/08/23 03:41:01;;;;;;;14.40;10.70;;;;;;;17.51;59.03;100975.16;117380;1182;24145;-67
2021/08/23 03:43:32;;;;;;;17.60;11.00;;;;;;;17.51;59.10;100971.60;117393;1182;21870;-63
2021/08/23 03:46:01;;;;;;;16.70;11.50;;;;;;;17.52;59.24;100969.65;117410;1185;21901;-63
2021/08/23 03:48:29;;;;;;;16.60;11.10;;;;;;;17.56;59.26;100966.87;117368;1185;21865;-64
2021/08/23 03:50:57;;;;;;;16.90;11.40;;;;;;;17.63;59.46;100965.57;117422;1185;21860;-67
2021/08/23 03:53:25;;;;;;;14.20;10.50;;;;;;;17.69;59.44;100969.63;117395;1183;21855;-63
2021/08/23 03:55:53;;;;;;;16.40;10.30;;;;;;;17.77;59.54;100970.09;117399;1186;21858;-63
2021/08/23 03:58:22;;;;;;;15.30;9.70;;;;;;;17.83;59.58;100969.20;117334;1185;21896;-63
2021/08/23 04:00:50;;;;;;;15.80;10.20;;;;;;;17.89;59.67;100971.14;117456;1185;21854;-67
2021/08/23 04:03:19;;;;;;;16.20;10.30;;;;;;;17.96;59.75;100975.49;117176;1182;21857;-64
2021/08/23 04:05:47;;;;;;;16.50;10.70;;;;;;;18.05;59.62;100976.80;117406;1183;21855;-63
2021/08/23 04:08:15;;;;;;;14.50;10.30;;;;;;;18.14;59.61;100972.08;117401;1185;21851;-63
2021/08/23 04:10:47;;;;;;;14.30;10.40;;;;;;;18.20;59.72;100972.24;117390;1185;21862;-66
2021/08/23 04:13:15;;;;;;;13.80;10.30;;;;;;;18.28;59.80;100976.41;117408;1185;22908;-64
2021/08/23 04:15:46;;;;;;;15.10;10.60;;;;;;;18.37;59.98;100979.07;117378;1182;21857;-63
2021/08/23 04:18:15;;;;;;;13.80;10.50;;;;;;;18.48;59.96;100981.02;117472;1182;21860;-67
2021/08/23 04:20:43;;;;;;;16.20;9.90;;;;;;;18.59;59.84;100980.80;117389;1185;22322;-64
2021/08/23 04:23:11;;;;;;;18.40;10.20;;;;;;;18.68;59.90;100978.71;117426;1185;21854;-68
2021/08/23 04:25:40;;;;;;;17.80;9.90;;;;;;;18.78;59.81;100977.80;117297;1185;21862;-64
2021/08/23 04:28:08;;;;;;;14.40;9.80;;;;;;;18.89;59.80;100979.36;117432;1185;21848;-65
2021/08/23 04:30:36;;;;;;;19.40;9.20;;;;;;;19.04;59.76;100982.92;117514;1182;21855;-65
2021/08/23 04:33:05;;;;;;;20.80;10.90;;;;;;;19.16;59.43;100978.04;117447;1186;21854;-64
2021/08/23 04:35:33;;;;;;;14.10;9.50;;;;;;;19.29;59.62;100981.45;117386;1185;23449;-67
2021/08/23 04:38:01;;;;;;;12.80;9.10;;;;;;;19.40;59.53;100982.43;117146;1185;23459;-65
2021/08/23 04:40:29;;;;;;;13.80;9.00;;;;;;;19.52;59.34;100979.63;117427;1184;21863;-66
2021/08/23 04:42:58;;;;;;;11.70;8.90;;;;;;;19.64;59.10;100980.60;117381;1185;21858;-65
2021/08/23 04:45:26;;;;;;;19.80;10.20;;;;;;;19.74;59.18;100975.89;117340;1185;22722;-67
2021/08/23 04:47:55;;;;;;;21.40;10.00;;;;;;;19.83;59.09;100975.55;117301;1182;23433;-65
2021/08/23 04:50:23;;;;;;;12.20;7.90;;;;;;;19.95;58.96;100973.13;117493;1184;21864;-64
2021/08/23 04:52:51;;;;;;;12.20;8.20;;;;;;;20.09;58.67;100969.14;117663;1182;21899;-67
2021/08/23 04:55:20;;;;;;;11.60;7.60;;;;;;;20.24;58.28;100967.77;117376;1182;21858;-65
2021/08/23 04:57:59;;;;;;;11.50;7.80;;;;;;;20.42;58.02;100965.74;117395;1183;21857;-65
2021/08/23 05:00:28;;;;;;;14.60;8.10;;;;;;;20.54;57.80;100962.01;117352;1186;21986;-65
2021/08/23 05:02:56;;;;;;;9.80;7.00;;;;;;;20.66;57.48;100958.30;118806;1185;22890;-66
2021/08/23 05:05:24;;;;;;;11.70;7.50;;;;;;;20.84;57.21;100952.83;117387;1185;21864;-66
2021/08/23 05:07:52;;;;;;;13.80;8.20;;;;;;;21.10;56.87;100953.42;117326;1185;21855;-65
2021/08/23 05:10:21;;;;;;;9.80;7.20;;;;;;;21.34;56.24;100952.12;117320;1185;21861;-65
2021/08/23 05:12:54;;;;;;;13.90;6.80;;;;;;;21.56;55.95;100946.60;117787;1185;21784;-65
2021/08/23 05:15:23;;;;;;;11.10;7.30;;;;;;;21.80;55.22;100940.27;117382;1179;21855;-61
2021/08/23 05:17:52;;;;;;;11.10;5.80;;;;;;;21.98;54.52;100939.52;117428;1176;22978;-64
2021/08/23 05:20:20;;;;;;;9.70;6.50;;;;;;;22.19;54.07;100940.95;117404;1186;21885;-63
2021/08/23 05:22:49;;;;;;;8.50;5.90;;;;;;;22.42;53.21;100935.98;117402;1182;21854;-63
2021/08/23 05:25:17;;;;;;;8.00;5.10;;;;;;;22.65;52.47;100932.81;117424;1185;23487;-60
2021/08/23 05:27:45;;;;;;;9.80;5.60;;;;;;;22.86;51.51;100929.71;117551;1185;21854;-63
2021/08/23 05:30:13;;;;;;;6.90;4.90;;;;;;;23.05;50.93;100934.23;117383;1182;21850;-60
2021/08/23 05:32:41;;;;;;;8.90;5.20;;;;;;;23.23;50.22;100935.21;117400;1185;21854;-61
2021/08/23 05:35:11;;;;;;;8.80;5.00;;;;;;;23.43;49.68;100936.80;117408;1183;21860;-62
2021/08/23 05:37:39;;;;;;;9.60;5.20;;;;;;;23.61;49.46;100938.05;117427;1186;21855;-64
2021/08/23 05:40:08;;;;;;;8.50;5.30;;;;;;;23.83;49.27;100941.11;117378;1183;21937;-63
2021/08/23 05:42:36;;;;;;;5.80;4.20;;;;;;;24.05;48.91;100936.24;117493;1185;21865;-61
2021/08/23 05:45:05;;;;;;;8.00;4.40;;;;;;;24.25;48.18;100937.20;117420;1185;23433;-62
2021/08/23 05:47:33;;;;;;;6.40;4.20;;;;;;;24.46;47.61;100940.25;117414;1185;21854;-63
2021/08/23 05:50:02;;;;;;;6.40;3.90;;;;;;;24.65;47.45;100941.39;117379;1186;21895;-64
2021/08/23 05:52:30;;;;;;;7.20;4.00;;;;;;;24.85;46.94;100943.77;117466;1185;22040;-61
2021/08/23 05:54:58;;;;;;;6.80;4.30;;;;;;;25.06;46.56;100942.24;117370;1183;21858;-62
2021/08/23 05:57:27;;;;;;;6.70;4.00;;;;;;;25.32;46.37;100938.58;117345;1183;23157;-65
2021/08/23 05:59:56;;;;;;;5.90;4.00;;;;;;;25.57;45.79;100934.95;117452;1185;21884;-65
2021/08/23 06:02:24;;;;;;;6.00;3.80;;;;;;;25.80;44.93;100933.46;117318;1185;21863;-61
2021/08/23 06:04:53;;;;;;;7.40;4.00;;;;;;;25.99;44.18;100932.16;117465;1186;21851;-63
2021/08/23 06:07:21;;;;;;;5.70;3.80;;;;;;;26.19;44.20;100927.44;117418;1182;21854;-63
2021/08/23 06:09:49;;;;;;;7.80;4.00;;;;;;;26.42;44.12;100929.95;117424;1182;21855;-64
2021/08/23 06:12:18;;;;;;;6.30;4.00;;;;;;;26.66;43.84;100922.17;117401;1183;21854;-64
2021/08/23 06:14:46;;;;;;;5.80;3.60;;;;;;;26.90;43.17;100918.83;117384;1183;23471;-64
2021/08/23 06:17:14;;;;;;;7.30;4.00;;;;;;;27.10;42.71;100921.34;117366;1182;21865;-66
2021/08/23 06:19:42;;;;;;;8.40;4.20;;;;;;;27.33;42.34;100921.33;117432;1182;21845;-64
2021/08/23 06:22:11;;;;;;;7.50;3.70;;;;;;;27.58;41.78;100921.09;117366;1185;21854;-65
2021/08/23 06:24:39;;;;;;;5.00;3.60;;;;;;;27.80;40.97;100918.15;117426;1185;21855;-64
2021/08/23 06:27:07;;;;;;;5.50;3.50;;;;;;;28.02;40.45;100916.61;117401;1183;21858;-63
2021/08/23 06:29:35;;;;;;;8.40;3.40;;;;;;;28.25;39.73;100912.35;117372;1186;21858;-64
2021/08/23 06:32:04;;;;;;;6.50;3.20;;;;;;;28.38;39.22;100912.59;117382;1182;21871;-66
2021/08/23 06:34:32;;;;;;;7.60;3.10;;;;;;;28.61;39.60;100909.55;117401;1183;23667;-63
2021/08/23 06:37:01;;;;;;;5.10;3.10;;;;;;;28.88;38.96;100909.39;117505;1185;21982;-61
2021/08/23 06:39:29;;;;;;;6.10;2.90;;;;;;;29.06;37.61;100907.00;117374;1186;22323;-64
2021/08/23 06:41:57;;;;;;;6.50;2.90;;;;;;;29.25;37.30;100908.92;117369;1185;23455;-65
2021/08/23 06:44:25;;;;;;;8.80;3.40;;;;;;;29.45;37.27;100911.94;117404;1185;23447;-63
2021/08/23 06:46:53;;;;;;;5.80;3.10;;;;;;;29.62;36.65;100912.14;117347;1182;22838;-64
2021/08/23 06:49:22;;;;;;;6.20;2.50;;;;;;;29.76;36.35;100909.39;117386;1186;23519;-65
2021/08/23 06:51:50;;;;;;;5.00;2.50;;;;;;;29.88;35.78;100904.73;117351;1182;21854;-64
2021/08/23 06:54:19;;;;;;;6.00;2.80;;;;;;;30.04;35.70;100902.48;117474;1185;23433;-66
2021/08/23 06:56:47;;;;;;;5.40;2.70;;;;;;;30.23;35.50;100900.70;117437;1185;21940;-65
2021/08/23 06:59:15;;;;;;;6.50;2.60;;;;;;;30.37;34.85;100902.35;117335;1182;23455;-63
2021/08/23 07:01:43;;;;;;;5.40;2.70;;;;;;;30.54;34.68;100901.98;117365;1185;24150;-64
2021/08/23 07:04:12;;;;;;;5.20;2.90;;;;;;;30.77;34.47;100902.80;117427;1185;22737;-66
2021/08/23 07:06:40;;;;;;;4.50;3.20;;;;;;;31.00;34.47;100897.15;117449;1185;24145;-63
2021/08/23 07:09:28;;;;;;;8.50;2.80;;;;;;;31.20;33.92;100896.30;117415;1185;23456;-64
2021/08/23 07:11:57;;;;;;;3.50;2.30;;;;;;;31.39;34.10;100901.61;117402;1185;23445;-62
2021/08/23 07:14:25;;;;;;;4.50;2.30;;;;;;;31.60;33.21;100900.20;117314;1182;21991;-63
2021/08/23 07:16:53;;;;;;;4.30;2.20;;;;;;;31.77;32.35;100900.48;117491;1182;21865;-65
2021/08/23 07:19:21;;;;;;;5.70;2.20;;;;;;;31.91;32.02;100901.83;117494;1184;21905;-64
2021/08/23 07:21:49;;;;;;;5.60;2.80;;;;;;;32.12;32.20;100900.06;117333;1185;22318;-63
2021/08/23 07:24:18;;;;;;;5.00;2.30;;;;;;;32.33;31.66;100899.73;117454;1185;21854;-64
2021/08/23 07:26:47;;;;;;;3.00;1.80;;;;;;;32.45;31.21;100897.99;117378;1185;23449;-65
2021/08/23 07:29:15;;;;;;;6.10;3.00;;;;;;;32.58;30.90;100898.09;117427;1184;22909;-70
2021/08/23 07:31:43;;;;;;;3.60;2.20;;;;;;;32.74;30.45;100898.15;117385;1185;21855;-70
2021/08/23 07:34:11;;;;;;;3.60;1.70;;;;;;;32.93;29.58;100896.96;117465;1178;22620;-68
2021/08/23 07:36:40;;;;;;;3.80;2.10;;;;;;;33.08;29.08;100901.32;117428;1183;21849;-63
2021/08/23 07:39:08;;;;;;;3.80;1.80;;;;;;;33.25;29.40;100901.31;117407;1184;21860;-67
2021/08/23 07:41:36;;;;;;;5.60;2.10;;;;;;;33.45;29.42;100900.52;117368;1185;21856;-65
2021/08/23 07:44:05;;;;;;;6.00;2.80;;;;;;;33.65;29.43;100895.67;117424;1182;21855;-63
2021/08/23 07:46:33;;;;;;;4.80;2.10;;;;;;;33.80;28.47;100894.25;117425;1182;21865;-63
2021/08/23 07:49:02;;;;;;;5.80;3.00;;;;;;;33.88;27.89;100894.94;117404;1185;22909;-63
2021/08/23 07:51:31;;;;;;;10.90;2.70;;;;;;;33.92;27.79;100891.57;117409;1182;22545;-64
2021/08/23 07:53:59;;;;;;;5.20;2.20;;;;;;;33.90;27.92;100893.24;117521;1185;22503;-63
2021/08/23 07:56:29;;;;;;;4.60;2.30;;;;;;;33.80;28.55;100895.89;117427;1182;24143;-62
2021/08/23 07:58:57;;;;;;;;;;;;;;;33.83;28.58;100896.38;117416;1185;22982;-64
2021/08/23 08:01:27;;;;;;;11.00;2.50;;;;;;;33.96;29.15;100893.81;117360;1185;21853;-64
2021/08/23 08:03:56;;;;;;;3.50;2.30;;;;;;;34.02;28.81;100894.24;117415;1186;23429;-63
2021/08/23 08:06:24;;;;;;;4.00;1.90;;;;;;;34.18;28.32;100892.05;117354;1186;23432;-66
2021/08/23 08:08:52;;;;;;;4.70;2.00;;;;;;;34.27;28.61;100891.81;117384;1185;21855;-67
2021/08/23 08:11:21;;;;;;;3.80;1.80;;;;;;;34.22;27.76;100886.37;117504;1182;21845;-65
2021/08/23 08:13:49;;;;;;;4.50;1.50;;;;;;;34.09;27.52;100884.75;117512;1185;21854;-63
2021/08/23 08:16:18;;;;;;;7.20;2.10;;;;;;;33.93;27.25;100885.48;117406;1183;21845;-64
2021/08/23 08:18:46;;;;;;;2.70;1.70;;;;;;;33.68;27.79;100889.28;117465;1180;24133;-63
2021/08/23 08:21:15;;;;;;;4.10;1.80;;;;;;;33.53;28.40;100889.03;117397;1185;21888;-65
2021/08/23 08:23:43;;;;;;;4.90;2.40;;;;;;;33.46;29.71;100887.36;117469;1186;22908;-62
2021/08/23 08:26:11;;;;;;;2.10;1.50;;;;;;;33.46;29.40;100886.24;117382;1186;22931;-64
2021/08/23 08:28:39;;;;;;;4.40;1.60;;;;;;;33.64;28.39;100880.65;117423;1185;21858;-62
2021/08/23 08:31:08;;;;;;;3.00;1.50;;;;;;;33.86;27.62;100881.63;117455;1185;21852;-61
2021/08/23 08:33:36;;;;;;;4.70;1.70;;;;;;;34.14;27.73;100880.55;117412;1182;23459;-66
2021/08/23 08:36:04;;;;;;;4.00;1.80;;;;;;;34.47;27.58;100875.41;117358;1185;21862;-65
2021/08/23 08:38:32;;;;;;;4.70;1.90;;;;;;;34.75;27.16;100867.80;117358;1185;24142;-62
2021/08/23 08:41:01;;;;;;;5.10;1.50;;;;;;;35.06;27.00;100868.13;117383;1186;22970;-68
2021/08/23 08:43:29;;;;;;;2.70;1.20;;;;;;;35.41;26.12;100865.38;117427;1182;21844;-64
2021/08/23 08:45:58;;;;;;;5.80;1.50;;;;;;;35.75;25.16;100867.39;117360;1180;22896;-64
2021/08/23 08:48:26;;;;;;;7.20;1.60;;;;;;;36.04;24.83;100860.85;117346;1182;21857;-63
2021/08/23 08:50:55;;;;;;;3.60;1.40;;;;;;;36.23;24.48;100859.88;117448;1185;21854;-64
2021/08/23 08:53:23;;;;;;;5.30;1.50;;;;;;;36.35;24.02;100859.29;117367;1182;21845;-70
2021/08/23 08:55:52;;;;;;;1.90;1.50;;;;;;;36.50;24.18;100858.86;117453;1185;21855;-66
2021/08/23 08:58:23;;;;;;;2.70;1.60;;;;;;;36.75;23.99;100857.60;117380;1186;22969;-68
2021/08/23 09:00:52;;;;;;;2.20;1.50;;;;;;;36.99;23.81;100858.75;117341;1185;23589;-72
2021/08/23 09:03:27;;;;;;;3.80;1.50;;;;;;;37.24;22.72;100857.65;117459;1185;21851;-69
2021/08/23 09:06:00;;;;;;;3.10;1.60;;;;;;;37.50;21.96;100858.80;117454;1184;23429;-68
2021/08/23 09:08:29;;;;;;;3.00;1.80;;;;;;;37.65;21.66;100855.55;117446;1186;22929;-70
2021/08/23 09:11:16;;;;;;;2.30;1.20;;;;;;;37.77;21.60;100853.71;117513;1185;21847;-68
2021/08/23 09:14:06;;;;;;;2.50;1.40;;;;;;;37.94;21.16;100853.87;117450;1185;21858;-70
2021/08/23 09:16:39;;;;;;;3.30;1.50;;;;;;;38.01;21.20;100846.95;117439;1185;22805;-62
2021/08/23 09:19:20;;;;;;;4.50;1.20;;;;;;;38.06;20.57;100846.48;117462;1186;21860;-74
2021/08/23 09:22:00;;;;;;;3.60;1.30;;;;;;;38.29;20.53;100843.13;117413;1185;21854;-71
2021/08/23 09:24:32;;;;;;;5.10;1.40;;;;;;;38.25;20.66;100844.96;117405;1185;23432;-72
2021/08/23 09:27:03;;;;;;;2.80;1.30;;;;;;;38.22;20.85;100845.82;117330;1185;22909;-63
2021/08/23 09:29:35;;;;;;;7.10;1.40;;;;;;;38.26;20.44;100842.40;117475;1183;22005;-67
2021/08/23 09:32:03;;;;;;;2.00;1.20;;;;;;;38.27;20.24;100839.05;117359;1182;21897;-71
2021/08/23 09:34:32;;;;;;;2.70;1.70;;;;;;;38.36;19.80;100836.24;117442;1186;21920;-71
2021/08/23 09:37:00;;;;;;;3.40;1.60;;;;;;;38.50;19.71;100835.25;117374;1185;21858;-63
2021/08/23 09:39:28;;;;;;;4.80;2.50;;;;;;;38.55;19.69;100833.20;117414;1182;21855;-64
2021/08/23 09:42:06;;;;;;;3.90;2.70;;;;;;;38.66;19.68;100832.17;117360;1186;21895;-63
2021/08/23 09:44:38;;;;;;;3.30;1.70;;;;;;;38.73;19.78;100828.23;117401;1179;23455;-74
2021/08/23 09:47:10;;;;;;;4.60;1.60;;;;;;;38.76;20.17;100830.08;117422;1186;21844;-65
2021/08/23 09:49:40;;;;;;;4.70;1.60;;;;;;;38.87;19.71;100827.42;117265;1182;24160;-65
2021/08/23 09:52:09;;;;;;;;;;;;;;;38.96;19.43;100826.52;117485;1186;21832;-73
2021/08/23 09:55:06;;;;;;;5.10;1.50;;;;;;;38.97;19.47;100832.23;117342;1182;22643;-75
2021/08/23 09:57:34;;;;;;;5.00;1.30;;;;;;;38.97;19.20;100835.28;119489;1183;22180;-70
2021/08/23 10:00:04;;;;;;;5.20;2.70;;;;;;;38.96;19.45;100831.67;119545;1185;21742;-70
2021/08/23 10:02:32;;;;;;;3.90;1.80;;;;;;;39.04;19.14;100837.05;117935;1182;23534;-70
2021/08/23 10:05:01;;;;;;;5.50;2.00;;;;;;;39.09;19.07;100834.77;117387;1185;23429;-68
2021/08/23 10:07:29;;;;;;;3.60;1.50;;;;;;;39.08;18.93;100830.43;117425;1185;21855;-67
2021/08/23 10:10:03;;;;;;;3.20;1.80;;;;;;;39.08;18.77;100830.00;117321;1185;22019;-68
2021/08/23 10:12:31;;;;;;;3.70;1.40;;;;;;;39.13;19.05;100828.33;117418;1185;21848;-73
2021/08/23 10:14:59;;;;;;;3.00;1.90;;;;;;;39.23;19.01;100832.02;117313;1185;21858;-65
2021/08/23 10:17:31;;;;;;;2.70;1.60;;;;;;;39.35;19.22;100830.91;117381;1185;21854;-71
2021/08/23 10:19:59;;;;;;;4.40;1.60;;;;;;;39.43;19.20;100826.79;117383;1185;21848;-69
2021/08/23 10:22:27;;;;;;;2.00;1.40;;;;;;;39.46;18.83;100823.63;117343;1185;21900;-72
2021/08/23 10:24:55;;;;;;;3.00;1.30;;;;;;;39.58;18.60;100820.59;117336;1185;21858;-65
2021/08/23 10:27:23;;;;;;;2.00;1.40;;;;;;;39.64;18.46;100822.09;117402;1184;21852;-62
2021/08/23 10:29:52;;;;;;;4.00;1.30;;;;;;;39.61;18.38;100823.92;117371;1184;21860;-63
2021/08/23 10:32:35;;;;;;;3.60;1.60;;;;;;;39.68;18.18;100827.03;117389;1186;21872;-63
2021/08/23 10:35:17;;;;;;;2.60;1.30;;;;;;;39.77;18.18;100824.17;117437;1184;22166;-73
2021/08/23 10:37:46;;;;;;;2.80;1.30;;;;;;;39.87;18.31;100826.96;117457;1185;22908;-70
2021/08/23 10:40:14;;;;;;;1.70;1.00;;;;;;;39.99;18.20;100829.14;117451;1182;21861;-70
2021/08/23 10:42:46;;;;;;;3.60;1.60;;;;;;;40.11;18.12;100826.34;117427;1185;21906;-69
2021/08/23 10:45:18;;;;;;;4.00;1.30;;;;;;;39.98;17.43;100820.66;117363;1186;22913;-67
2021/08/23 10:47:47;;;;;;;5.50;1.40;;;;;;;39.65;17.26;100820.05;117424;1185;21914;-66
2021/08/23 10:50:25;;;;;;;1.80;1.20;;;;;;;39.39;17.93;100823.02;117325;1185;21925;-72
2021/08/23 10:52:55;;;;;;;3.10;1.60;;;;;;;39.31;18.37;100824.24;117389;1185;22911;-66
2021/08/23 10:55:26;;;;;;;3.30;1.60;;;;;;;39.41;18.15;100817.77;117654;1185;22055;-71
2021/08/23 10:58:04;;;;;;;4.00;1.70;;;;;;;39.57;18.01;100812.08;117401;1186;23435;-63
2021/08/23 11:00:40;;;;;;;1.80;1.30;;;;;;;39.65;18.31;100811.75;117413;1185;21855;-64
2021/08/23 11:03:09;;;;;;;3.20;1.70;;;;;;;39.86;18.47;100807.02;117402;1185;21964;-69
2021/08/23 11:05:38;;;;;;;3.70;2.00;;;;;;;39.95;18.39;100808.95;117378;1185;21854;-69
2021/08/23 11:08:10;;;;;;;4.00;2.10;;;;;;;40.04;18.00;100806.83;117399;1186;21902;-64
2021/08/23 11:10:39;;;;;;;5.60;2.00;;;;;;;39.93;17.54;100801.64;117182;1185;22809;-71
2021/08/23 11:13:11;;;;;;;3.70;1.90;;;;;;;39.68;17.45;100801.05;117464;1185;22827;-71
2021/08/23 11:15:42;;;;;;;4.70;1.70;;;;;;;39.41;17.90;100800.35;117383;1182;24185;-65
2021/08/23 11:18:14;;;;;;;6.00;1.80;;;;;;;39.37;18.04;100796.67;117373;1182;22098;-63
2021/08/23 11:20:51;;;;;;;3.60;1.80;;;;;;;39.47;18.26;100794.88;117418;1186;21856;-63
2021/08/23 11:23:25;;;;;;;3.30;1.50;;;;;;;39.68;18.25;100796.14;117415;1185;21871;-63